createdAt,value
2022-11-10T00:00:30.094Z,97769.05
2022-11-10T00:03:23.645Z,97770.41
2022-11-10T00:06:17.970Z,97769.34
2022-11-10T00:09:12.715Z,97770.36
2022-11-10T00:12:10.272Z,97778.58
2022-11-10T00:15:20.148Z,97774.61
2022-11-10T00:18:17.050Z,97769.63
2022-11-10T00:21:14.548Z,97771.70
2022-11-10T00:24:08.276Z,97774.11
2022-11-10T00:27:02.935Z,97779.61
2022-11-10T00:29:56.058Z,97782.69
2022-11-10T00:32:52.652Z,97787.16
2022-11-10T00:35:49.426Z,97788.72
2022-11-10T00:38:40.706Z,97785.29
2022-11-10T00:41:34.581Z,97781.02
2022-11-10T00:44:32.450Z,97777.05
2022-11-10T00:47:26.647Z,97777.91
2022-11-10T00:50:21.252Z,97780.80
2022-11-10T00:53:15.023Z,97783.52
2022-11-10T00:56:06.823Z,97790.73
2022-11-10T00:59:01.473Z,97788.04
2022-11-10T01:01:58.203Z,97780.83
2022-11-10T01:04:51.037Z,97779.63
2022-11-10T01:07:45.295Z,97778.95
2022-11-10T01:10:40.188Z,97776.23
2022-11-10T01:13:35.162Z,97775.55
2022-11-10T01:16:29.427Z,97776.89
2022-11-10T01:19:30.658Z,97778.46
2022-11-10T01:22:27.611Z,97780.00
2022-11-10T01:25:21.279Z,97772.45
2022-11-10T01:28:29.518Z,97775.71
2022-11-10T01:31:29.579Z,97781.03
2022-11-10T01:34:22.724Z,97781.20
2022-11-10T01:37:16.376Z,97772.61
2022-11-10T01:40:14.180Z,97770.37
2022-11-10T01:43:15.883Z,97780.65
2022-11-10T01:46:11.381Z,97780.31
2022-11-10T01:49:06.047Z,97780.31
2022-11-10T01:52:06.782Z,97783.39
2022-11-10T01:55:01.077Z,97783.73
2022-11-10T01:58:10.986Z,97784.42
2022-11-10T02:01:06.223Z,97790.44
2022-11-10T02:04:02.068Z,97796.95
2022-11-10T02:06:57.221Z,97804.50
2022-11-10T02:09:50.778Z,97811.18
2022-11-10T02:12:43.832Z,97815.30
2022-11-10T02:15:35.591Z,97816.33
2022-11-10T02:18:28.926Z,97821.66
2022-11-10T02:21:23.466Z,97823.18
2022-11-10T02:24:17.916Z,97823.37
2022-11-10T02:27:14.195Z,97826.11
2022-11-10T02:30:10.137Z,97825.25
2022-11-10T02:33:04.669Z,97828.35
2022-11-10T02:35:58.461Z,97830.26
2022-11-10T02:38:51.892Z,97833.54
2022-11-10T02:41:44.474Z,97834.56
2022-11-10T02:44:38.488Z,97833.73
2022-11-10T02:47:34.543Z,97840.92
2022-11-10T02:50:28.716Z,97843.32
2022-11-10T02:53:22.015Z,97850.19
2022-11-10T02:56:17.166Z,97846.77
2022-11-10T02:59:10.200Z,97845.07
2022-11-10T03:02:03.965Z,97845.73
2022-11-10T03:04:57.684Z,97843.52
2022-11-10T03:07:57.645Z,97841.98
2022-11-10T03:10:50.086Z,97840.46
2022-11-10T03:14:00.442Z,97839.11
2022-11-10T03:16:54.968Z,97831.56
2022-11-10T03:20:01.378Z,97834.48
2022-11-10T03:22:56.493Z,97831.23
2022-11-10T03:25:50.426Z,97833.44
2022-11-10T03:28:56.985Z,97839.90
2022-11-10T03:31:51.234Z,97843.95
2022-11-10T03:34:47.156Z,97842.04
2022-11-10T03:37:43.066Z,97847.31
2022-11-10T03:40:50.752Z,97853.95
2022-11-10T03:43:50.909Z,97854.24
2022-11-10T03:46:51.566Z,97850.83
2022-11-10T03:49:44.254Z,97852.65
2022-11-10T03:52:37.536Z,97857.91
2022-11-10T03:55:31.872Z,97857.51
2022-11-10T03:58:26.016Z,97858.94
2022-11-10T04:01:18.372Z,97858.34
2022-11-10T04:04:32.386Z,97860.38
2022-11-10T04:07:42.904Z,97863.41
2022-11-10T04:10:39.786Z,97857.35
2022-11-10T04:14:01.638Z,97857.44
2022-11-10T04:16:57.385Z,97870.23
2022-11-10T04:19:50.203Z,97875.46
2022-11-10T04:23:01.165Z,97875.21
2022-11-10T04:26:08.684Z,97871.21
2022-11-10T04:29:04.719Z,97873.52
2022-11-10T04:31:58.315Z,97872.60
2022-11-10T04:34:51.718Z,97873.91
2022-11-10T04:37:46.721Z,97873.38
2022-11-10T04:40:40.158Z,97875.73
2022-11-10T04:46:55.264Z,97890.77
2022-11-10T04:49:49.966Z,97892.61
2022-11-10T04:52:44.417Z,97894.31
2022-11-10T04:55:41.233Z,97891.02
2022-11-10T04:58:36.116Z,97882.23
2022-11-10T05:01:34.577Z,97888.06
2022-11-10T05:04:28.034Z,97881.70
2022-11-10T05:07:20.985Z,97887.03
2022-11-10T05:10:14.787Z,97897.01
2022-11-10T05:13:09.002Z,97906.13
2022-11-10T05:16:07.546Z,97913.36
2022-11-10T05:19:01.538Z,97920.91
2022-11-10T05:21:56.309Z,97920.55
2022-11-10T05:24:51.877Z,97926.09
2022-11-10T05:27:44.853Z,97926.92
2022-11-10T05:30:39.380Z,97931.03
2022-11-10T05:33:32.600Z,97933.23
2022-11-10T05:36:28.840Z,97932.88
2022-11-10T05:39:21.771Z,97935.23
2022-11-10T05:42:15.472Z,97945.52
2022-11-10T05:45:12.803Z,97946.02
2022-11-10T05:48:07.449Z,97949.76
2022-11-10T05:51:01.132Z,97953.20
2022-11-10T05:53:53.957Z,97959.84
2022-11-10T05:56:49.636Z,97967.55
2022-11-10T05:59:42.156Z,97974.61
2022-11-10T06:02:36.851Z,97978.52
2022-11-10T06:05:31.488Z,97979.36
2022-11-10T06:08:24.298Z,97991.90
2022-11-10T06:11:21.118Z,97996.02
2022-11-10T06:14:14.350Z,97996.99
2022-11-10T06:17:08.860Z,98004.72
2022-11-10T06:20:02.107Z,98009.18
2022-11-10T06:23:07.993Z,98013.46
2022-11-10T06:26:03.926Z,98023.05
2022-11-10T06:29:10.648Z,98027.67
2022-11-10T06:32:04.083Z,98030.75
2022-11-10T06:35:02.949Z,98036.42
2022-11-10T06:38:07.833Z,98041.38
2022-11-10T06:41:10.907Z,98040.67
2022-11-10T06:44:17.487Z,98046.85
2022-11-10T06:47:12.927Z,98051.67
2022-11-10T06:50:16.427Z,98059.75
2022-11-10T06:53:10.757Z,98065.23
2022-11-10T06:56:03.950Z,98066.95
2022-11-10T06:58:59.666Z,98070.23
2022-11-10T07:02:21.375Z,98079.64
2022-11-10T07:05:42.283Z,98081.85
2022-11-10T07:08:55.978Z,98081.83
2022-11-10T07:12:15.529Z,98084.92
2022-11-10T07:15:10.856Z,98085.76
2022-11-10T07:18:06.756Z,98088.48
2022-11-10T07:21:01.512Z,98088.83
2022-11-10T07:23:59.411Z,98090.02
2022-11-10T07:26:54.510Z,98089.48
2022-11-10T07:29:47.975Z,98092.22
2022-11-10T07:32:43.712Z,98091.52
2022-11-10T07:35:46.757Z,98096.64
2022-11-10T07:38:39.677Z,98100.23
2022-11-10T07:41:36.146Z,98106.60
2022-11-10T07:44:32.076Z,98108.80
2022-11-10T07:47:29.248Z,98116.16
2022-11-10T07:50:26.179Z,98116.52
2022-11-10T07:53:22.423Z,98117.84
2022-11-10T07:56:20.622Z,98121.45
2022-11-10T07:59:22.924Z,98128.11
2022-11-10T08:02:17.999Z,98132.75
2022-11-10T08:05:12.172Z,98140.99
2022-11-10T08:08:06.851Z,98145.24
2022-11-10T08:11:01.973Z,98148.48
2022-11-10T08:14:04.922Z,98154.80
2022-11-10T08:16:58.221Z,98156.32
2022-11-10T08:19:51.471Z,98159.73
2022-11-10T08:22:45.119Z,98164.01
2022-11-10T08:25:41.768Z,98168.45
2022-11-10T08:28:43.046Z,98176.52
2022-11-10T08:31:55.595Z,98178.86
2022-11-10T08:34:51.277Z,98177.04
2022-11-10T08:37:46.143Z,98183.38
2022-11-10T08:40:41.170Z,98184.22
2022-11-10T08:43:39.816Z,98186.79
2022-11-10T08:46:33.108Z,98189.88
2022-11-10T08:49:27.519Z,98194.67
2022-11-10T08:52:22.190Z,98199.25
2022-11-10T08:55:21.850Z,98212.64
2022-11-10T08:58:16.954Z,98223.80
2022-11-10T09:01:14.406Z,98230.50
2022-11-10T09:04:08.498Z,98236.14
2022-11-10T09:07:01.800Z,98243.16
2022-11-10T09:10:06.592Z,98244.55
2022-11-10T09:13:03.576Z,98240.27
2022-11-10T09:15:59.061Z,98244.67
2022-11-10T09:18:52.380Z,98244.94
2022-11-10T09:21:46.130Z,98242.80
2022-11-10T09:24:41.308Z,98242.94
2022-11-10T09:27:39.541Z,98249.08
2022-11-10T09:30:35.172Z,98256.13
2022-11-10T09:33:29.952Z,98253.95
2022-11-10T09:36:25.606Z,98257.68
2022-11-10T09:39:21.471Z,98257.45
2022-11-10T09:42:30.628Z,98257.93
2022-11-10T09:45:29.180Z,98258.17
2022-11-10T09:48:27.191Z,98260.48
2022-11-10T09:51:26.622Z,98260.27
2022-11-10T09:54:33.623Z,98259.34
2022-11-10T09:57:32.075Z,98264.11
2022-11-10T10:00:26.909Z,98268.52
2022-11-10T10:03:26.794Z,98265.73
2022-11-10T10:06:23.091Z,98266.32
2022-11-10T10:09:31.518Z,98283.20
2022-11-10T10:12:38.372Z,98285.21
2022-11-10T10:15:39.903Z,98287.71
2022-11-10T10:18:42.182Z,98294.23
2022-11-10T10:21:53.048Z,98289.73
2022-11-10T10:24:46.871Z,98289.77
2022-11-10T10:27:44.651Z,98294.98
2022-11-10T10:30:37.909Z,98297.02
2022-11-10T10:33:32.485Z,98301.01
2022-11-10T10:36:30.185Z,98307.04
2022-11-10T10:39:30.857Z,98308.18
2022-11-10T10:42:33.864Z,98307.19
2022-11-10T10:45:31.870Z,98304.41
2022-11-10T10:48:32.146Z,98303.92
2022-11-10T10:51:35.303Z,98306.78
2022-11-10T10:54:32.288Z,98311.66
2022-11-10T10:57:30.301Z,98314.61
2022-11-10T11:00:26.904Z,98315.33
2022-11-10T11:03:42.680Z,98311.02
2022-11-10T11:06:38.254Z,98309.30
2022-11-10T11:09:43.577Z,98309.98
2022-11-10T11:12:38.077Z,98311.52
2022-11-10T11:15:34.471Z,98311.98
2022-11-10T11:18:30.092Z,98314.32
2022-11-10T11:21:35.788Z,98317.48
2022-11-10T11:24:36.807Z,98321.61
2022-11-10T11:27:39.314Z,98320.17
2022-11-10T11:30:41.432Z,98322.90
2022-11-10T11:33:40.497Z,98327.35
2022-11-10T11:36:46.217Z,98335.41
2022-11-10T11:39:51.179Z,98338.23
2022-11-10T11:42:49.647Z,98340.23
2022-11-10T11:45:56.315Z,98337.66
2022-11-10T11:49:07.036Z,98340.75
2022-11-10T11:52:11.329Z,98344.02
2022-11-10T11:55:18.556Z,98345.09
2022-11-10T11:58:27.299Z,98343.83
2022-11-10T12:01:38.044Z,98342.98
2022-11-10T12:05:01.650Z,98348.64
2022-11-10T12:08:04.559Z,98349.85
2022-11-10T12:11:06.159Z,98354.02
2022-11-10T12:14:07.476Z,98356.24
2022-11-10T12:17:13.601Z,98362.55
2022-11-10T12:20:28.891Z,98367.58
2022-11-10T12:23:35.562Z,98372.16
2022-11-10T12:26:41.176Z,98375.57
2022-11-10T12:30:04.349Z,98373.45
2022-11-10T12:33:04.255Z,98377.73
2022-11-10T12:36:00.475Z,98387.23
2022-11-10T12:39:03.617Z,98388.63
2022-11-10T12:42:07.107Z,98381.23
2022-11-10T12:45:23.572Z,98383.70
2022-11-10T12:48:21.666Z,98385.61
2022-11-10T12:51:23.119Z,98387.59
2022-11-10T12:54:20.885Z,98390.14
2022-11-10T12:57:19.400Z,98396.16
2022-11-10T13:00:30.860Z,98397.79
2022-11-10T13:03:37.531Z,98396.27
2022-11-10T13:06:33.534Z,98395.56
2022-11-10T13:09:33.167Z,98398.70
2022-11-10T13:12:28.562Z,98401.84
2022-11-10T13:15:55.162Z,98405.21
2022-11-10T13:19:07.733Z,98412.80
2022-11-10T13:22:14.575Z,98415.02
2022-11-10T13:25:41.537Z,98417.44
2022-11-10T13:29:22.025Z,98423.39
2022-11-10T13:32:31.288Z,98430.66
2022-11-10T13:35:55.426Z,98432.83
2022-11-10T13:38:49.593Z,98432.60
2022-11-10T13:41:51.435Z,98443.48
2022-11-10T13:44:58.962Z,98447.91
2022-11-10T13:48:00.437Z,98446.32
2022-11-10T13:51:12.848Z,98446.80
2022-11-10T13:54:29.732Z,98447.98
2022-11-10T13:57:38.143Z,98446.14
2022-11-10T14:00:35.821Z,98451.05
2022-11-10T14:04:01.281Z,98452.70
2022-11-10T14:07:01.997Z,98457.11
2022-11-10T14:09:58.759Z,98461.34
2022-11-10T14:12:55.424Z,98465.45
2022-11-10T14:15:49.736Z,98469.61
2022-11-10T14:18:51.565Z,98480.54
2022-11-10T14:21:56.895Z,98488.13
2022-11-10T14:25:01.971Z,98490.45
2022-11-10T14:27:58.214Z,98488.73
2022-11-10T14:30:59.018Z,98489.94
2022-11-10T14:34:01.162Z,98494.15
2022-11-10T14:37:01.051Z,98497.65
2022-11-10T14:39:57.540Z,98501.45
2022-11-10T14:42:52.489Z,98508.38
2022-11-10T14:45:55.546Z,98513.96
2022-11-10T14:48:57.993Z,98518.73
2022-11-10T14:51:52.479Z,98522.98
2022-11-10T14:54:51.561Z,98526.89
2022-11-10T14:57:49.051Z,98525.80
2022-11-10T15:00:47.095Z,98534.14
2022-11-10T15:03:42.785Z,98542.98
2022-11-10T15:06:44.468Z,98543.38
2022-11-10T15:09:38.383Z,98547.40
2022-11-10T15:12:32.364Z,98545.08
2022-11-10T15:15:42.022Z,98554.58
2022-11-10T15:18:40.899Z,98558.04
2022-11-10T15:21:37.063Z,98560.02
2022-11-10T15:24:31.071Z,98560.54
2022-11-10T15:27:31.270Z,98569.08
2022-11-10T15:30:38.606Z,98570.16
2022-11-10T15:33:34.329Z,98569.30
2022-11-10T15:36:37.354Z,98573.27
2022-11-10T15:39:38.747Z,98578.34
2022-11-10T15:42:37.026Z,98585.94
2022-11-10T15:45:41.214Z,98588.87
2022-11-10T15:48:42.557Z,98588.08
2022-11-10T15:51:37.325Z,98593.12
2022-11-10T15:54:31.591Z,98596.94
2022-11-10T15:57:25.263Z,98602.08
2022-11-10T16:00:23.343Z,98609.30
2022-11-10T16:03:18.915Z,98613.28
2022-11-10T16:06:16.981Z,98615.86
2022-11-10T16:09:14.703Z,98613.81
2022-11-10T16:12:09.002Z,98616.64
2022-11-10T16:15:03.426Z,98622.21
2022-11-10T16:17:59.545Z,98624.63
2022-11-10T16:20:53.037Z,98627.99
2022-11-10T16:23:56.684Z,98629.25
2022-11-10T16:27:01.042Z,98633.10
2022-11-10T16:33:19.874Z,98646.80
2022-11-10T16:36:29.602Z,98654.00
2022-11-10T16:39:26.099Z,98647.99
2022-11-10T16:42:19.220Z,98652.14
2022-11-10T16:45:37.845Z,98659.20
2022-11-10T16:48:35.885Z,98669.26
2022-11-10T16:51:35.879Z,98676.86
2022-11-10T16:54:30.029Z,98679.33
2022-11-10T16:57:28.234Z,98683.46
2022-11-10T17:00:23.535Z,98689.34
2022-11-10T17:03:15.912Z,98689.89
2022-11-10T17:06:15.634Z,98694.08
2022-11-10T17:09:15.942Z,98702.69
2022-11-10T17:12:18.786Z,98712.61
2022-11-10T17:15:15.904Z,98716.60
2022-11-10T17:18:13.830Z,98727.17
2022-11-10T17:21:21.096Z,98734.23
2022-11-10T17:24:24.560Z,98736.66
2022-11-10T17:27:22.686Z,98741.52
2022-11-10T17:30:26.665Z,98745.66
2022-11-10T17:33:35.329Z,98749.83
2022-11-10T17:36:46.269Z,98754.83
2022-11-10T17:39:43.804Z,98751.39
2022-11-10T17:42:40.026Z,98753.11
2022-11-10T17:49:29.282Z,98761.03
2022-11-10T17:52:23.621Z,98764.86
2022-11-10T17:55:28.495Z,98763.49
2022-11-10T17:58:25.938Z,98760.42
2022-11-10T18:01:23.613Z,98759.05
2022-11-10T18:04:17.887Z,98761.48
2022-11-10T18:07:12.969Z,98764.95
2022-11-10T18:10:12.952Z,98774.81
2022-11-10T18:13:07.568Z,98772.58
2022-11-10T18:16:06.212Z,98769.66
2022-11-10T18:19:01.827Z,98772.23
2022-11-10T18:21:58.523Z,98770.88
2022-11-10T18:24:54.853Z,98770.20
2022-11-10T18:27:49.773Z,98774.86
2022-11-10T18:30:52.572Z,98775.23
2022-11-10T18:33:47.254Z,98774.40
2022-11-10T18:36:42.759Z,98777.55
2022-11-10T18:39:45.948Z,98780.34
2022-11-10T18:42:41.038Z,98788.45
2022-11-10T18:45:51.879Z,98796.20
2022-11-10T18:48:46.996Z,98799.15
2022-11-10T18:51:41.492Z,98805.52
2022-11-10T18:54:35.203Z,98806.73
2022-11-10T18:57:30.222Z,98810.88
2022-11-10T19:00:24.257Z,98812.26
2022-11-10T19:03:24.848Z,98815.52
2022-11-10T19:06:20.100Z,98815.02
2022-11-10T19:09:16.238Z,98815.86
2022-11-10T19:12:36.555Z,98820.70
2022-11-10T19:15:59.925Z,98816.41
2022-11-10T19:19:04.123Z,98812.11
2022-11-10T19:22:25.514Z,98824.55
2022-11-10T19:25:38.751Z,98824.06
2022-11-10T19:28:37.661Z,98833.21
2022-11-10T19:31:37.614Z,98840.14
2022-11-10T19:34:38.077Z,98840.13
2022-11-10T19:37:42.297Z,98841.68
2022-11-10T19:40:40.195Z,98841.00
2022-11-10T19:43:37.286Z,98842.91
2022-11-10T19:46:37.404Z,98851.89
2022-11-10T19:49:40.312Z,98861.90
2022-11-10T19:52:38.549Z,98866.59
2022-11-10T19:55:37.648Z,98864.52
2022-11-10T19:58:36.555Z,98866.24
2022-11-10T20:01:32.873Z,98863.48
2022-11-10T20:04:26.490Z,98863.13
2022-11-10T20:07:45.396Z,98862.63
2022-11-10T20:10:39.153Z,98870.41
2022-11-10T20:13:33.516Z,98879.03
2022-11-10T20:16:27.888Z,98887.99
2022-11-10T20:19:21.412Z,98889.20
2022-11-10T20:22:25.447Z,98889.36
2022-11-10T20:25:19.798Z,98895.92
2022-11-10T20:28:15.911Z,98895.75
2022-11-10T20:31:21.013Z,98896.27
2022-11-10T20:34:13.972Z,98902.65
2022-11-10T20:37:11.784Z,98907.81
2022-11-10T20:40:30.341Z,98914.33
2022-11-10T20:43:37.433Z,98921.73
2022-11-10T20:46:53.400Z,98918.45
2022-11-10T20:49:48.069Z,98908.14
2022-11-10T20:52:41.668Z,98901.25
2022-11-10T20:55:52.655Z,98905.03
2022-11-10T20:58:48.524Z,98903.98
2022-11-10T21:01:40.849Z,98903.98
2022-11-10T21:04:32.690Z,98904.32
2022-11-10T21:07:26.177Z,98902.25
2022-11-10T21:10:20.259Z,98898.46
2022-11-10T21:13:14.702Z,98908.45
2022-11-10T21:16:33.397Z,98916.20
2022-11-10T21:19:26.836Z,98911.38
2022-11-10T21:22:19.722Z,98915.68
2022-11-10T21:25:17.124Z,98915.50
2022-11-10T21:28:15.190Z,98912.41
2022-11-10T21:34:22.050Z,98917.20
2022-11-10T21:37:17.961Z,98920.80
2022-11-10T21:40:17.864Z,98922.00
2022-11-10T21:43:21.730Z,98923.72
2022-11-10T21:46:31.191Z,98923.36
2022-11-10T21:49:24.734Z,98924.05
2022-11-10T21:52:18.442Z,98927.30
2022-11-10T21:55:13.858Z,98926.77
2022-11-10T21:58:07.460Z,98920.91
2022-11-10T22:01:08.289Z,98923.14
2022-11-10T22:04:07.317Z,98928.13
2022-11-10T22:07:18.860Z,98933.45
2022-11-10T22:10:31.352Z,98936.02
2022-11-10T22:13:40.833Z,98933.79
2022-11-10T22:17:03.790Z,98931.38
2022-11-10T22:19:57.529Z,98935.67
2022-11-10T22:22:51.074Z,98933.78
2022-11-10T22:25:43.723Z,98944.78
2022-11-10T22:28:38.946Z,98944.77
2022-11-10T22:31:43.726Z,98945.11
2022-11-10T22:34:37.128Z,98945.77
2022-11-10T22:37:33.553Z,98948.02
2022-11-10T22:40:44.068Z,98945.96
2022-11-10T22:44:03.137Z,98952.64
2022-11-10T22:47:00.777Z,98953.16
2022-11-10T22:49:54.204Z,98955.05
2022-11-10T22:52:52.713Z,98958.64
2022-11-10T22:55:46.560Z,98958.30
2022-11-10T22:58:38.147Z,98960.52
2022-11-10T23:01:34.089Z,98956.20
2022-11-10T23:04:28.363Z,98959.12
2022-11-10T23:07:21.395Z,98965.47
2022-11-10T23:10:15.974Z,98967.50
2022-11-10T23:13:10.686Z,98967.61
2022-11-10T23:16:07.952Z,98967.02
2022-11-10T23:19:03.065Z,98961.77
2022-11-10T23:21:56.314Z,98958.45
2022-11-10T23:24:52.902Z,98963.55
2022-11-10T23:27:48.625Z,98962.45
2022-11-10T23:30:43.114Z,98968.21
2022-11-10T23:33:36.186Z,98971.09
2022-11-10T23:36:30.589Z,98974.83
2022-11-10T23:39:23.729Z,98973.75
2022-11-10T23:42:16.426Z,98975.42
2022-11-10T23:45:08.635Z,98983.52
2022-11-10T23:48:03.029Z,98987.38
2022-11-10T23:50:59.702Z,98987.78
2022-11-10T23:53:50.737Z,98995.95
2022-11-10T23:56:41.127Z,98995.21
2022-11-10T23:59:32.223Z,99002.38
